createdAt,value
2019-01-04T00:00:05.217Z,0.00
2019-01-04T00:01:05.189Z,0.00
2019-01-04T00:02:05.174Z,0.00
2019-01-04T00:03:05.174Z,0.00
2019-01-04T00:04:05.149Z,0.00
2019-01-04T00:05:05.177Z,0.00
2019-01-04T00:06:05.115Z,0.00
2019-01-04T00:07:05.104Z,0.00
2019-01-04T00:08:05.102Z,0.00
2019-01-04T00:09:05.814Z,0.00
2019-01-04T00:10:05.081Z,0.00
2019-01-04T00:11:05.062Z,0.00
2019-01-04T00:12:05.083Z,0.00
2019-01-04T00:13:05.043Z,0.00
2019-01-04T00:14:05.035Z,0.00
2019-01-04T00:15:05.024Z,0.00
2019-01-04T00:16:04.999Z,0.00
2019-01-04T00:17:05.023Z,0.00
2019-01-04T00:18:04.985Z,0.00
2019-01-04T00:19:04.991Z,0.00
2019-01-04T00:20:04.951Z,0.00
2019-01-04T00:21:04.980Z,0.00
2019-01-04T00:22:04.935Z,0.00
2019-01-04T00:23:04.923Z,0.00
2019-01-04T00:24:04.918Z,0.00
2019-01-04T00:25:04.897Z,0.00
2019-01-04T00:26:04.880Z,0.00
2019-01-04T00:27:04.873Z,0.00
2019-01-04T00:28:04.864Z,0.00
2019-01-04T00:29:04.864Z,0.00
2019-01-04T00:30:04.833Z,0.00
2019-01-04T00:31:04.844Z,0.00
2019-01-04T00:32:04.826Z,0.00
2019-01-04T00:33:04.796Z,0.00
2019-01-04T00:34:04.782Z,0.00
2019-01-04T00:35:04.782Z,0.00
2019-01-04T00:36:04.789Z,0.00
2019-01-04T00:37:04.747Z,0.00
2019-01-04T00:38:04.748Z,0.00
2019-01-04T00:39:04.723Z,0.00
2019-01-04T00:40:04.714Z,0.00
2019-01-04T00:41:04.703Z,0.00
2019-01-04T00:42:04.701Z,0.00
2019-01-04T00:43:04.677Z,0.00
2019-01-04T00:44:04.668Z,0.00
2019-01-04T00:45:04.655Z,0.00
2019-01-04T00:46:04.646Z,0.00
2019-01-04T00:47:04.627Z,0.00
2019-01-04T00:48:04.627Z,0.00
2019-01-04T00:49:04.613Z,0.00
2019-01-04T00:50:04.592Z,0.00
2019-01-04T00:51:04.585Z,0.00
2019-01-04T00:52:04.578Z,0.00
2019-01-04T00:53:04.568Z,0.00
2019-01-04T00:54:04.554Z,0.00
2019-01-04T00:55:04.534Z,0.00
2019-01-04T00:56:04.520Z,0.00
2019-01-04T00:57:04.509Z,0.00
2019-01-04T00:58:04.515Z,0.00
2019-01-04T00:59:04.503Z,0.00
2019-01-04T01:00:04.477Z,0.00
2019-01-04T01:01:04.471Z,0.00
2019-01-04T01:02:04.450Z,0.00
2019-01-04T01:03:04.435Z,0.00
2019-01-04T01:04:04.426Z,0.00
2019-01-04T01:05:04.407Z,0.00
2019-01-04T01:06:04.397Z,0.00
2019-01-04T01:07:04.385Z,0.00
2019-01-04T01:08:04.372Z,0.00
2019-01-04T01:09:04.359Z,0.00
2019-01-04T01:10:04.355Z,0.00
2019-01-04T01:11:04.348Z,0.00
2019-01-04T01:12:04.357Z,0.00
2019-01-04T01:13:04.315Z,0.00
2019-01-04T01:14:04.315Z,0.00
2019-01-04T01:15:04.292Z,0.00
2019-01-04T01:16:04.276Z,0.00
2019-01-04T01:17:04.266Z,0.00
2019-01-04T01:18:04.264Z,0.00
2019-01-04T01:19:04.239Z,0.00
2019-01-04T01:20:04.231Z,0.00
2019-01-04T01:21:04.218Z,0.00
2019-01-04T01:22:04.207Z,0.00
2019-01-04T01:23:04.190Z,0.00
2019-01-04T01:24:04.197Z,0.00
2019-01-04T01:25:04.180Z,0.00
2019-01-04T01:26:04.152Z,0.00
2019-01-04T01:27:04.159Z,0.00
2019-01-04T01:28:04.149Z,0.00
2019-01-04T01:29:04.129Z,0.00
2019-01-04T01:30:04.109Z,0.00
2019-01-04T01:31:04.095Z,0.00
2019-01-04T01:32:04.087Z,0.00
2019-01-04T01:33:04.070Z,0.00
2019-01-04T01:34:04.057Z,0.00
2019-01-04T01:35:04.048Z,0.00
2019-01-04T01:36:04.039Z,0.00
2019-01-04T01:37:04.026Z,0.00
2019-01-04T01:38:04.008Z,0.00
2019-01-04T01:39:03.999Z,0.00
2019-01-04T01:40:03.983Z,0.00
2019-01-04T01:41:03.970Z,0.00
2019-01-04T01:42:03.971Z,0.00
2019-01-04T01:43:03.939Z,0.00
2019-01-04T01:44:03.939Z,0.00
2019-01-04T01:45:03.926Z,0.00
2019-01-04T01:46:03.908Z,0.00
2019-01-04T01:47:03.897Z,0.00
2019-01-04T01:48:03.894Z,0.00
2019-01-04T01:49:03.868Z,0.00
2019-01-04T01:50:03.856Z,0.00
2019-01-04T01:51:03.853Z,0.00
2019-01-04T01:52:03.844Z,0.00
2019-01-04T01:53:03.826Z,0.00
2019-01-04T01:54:03.809Z,0.00
2019-01-04T01:55:03.797Z,0.00
2019-01-04T01:56:03.783Z,0.00
2019-01-04T01:57:03.779Z,0.00
2019-01-04T01:58:03.768Z,0.00
2019-01-04T01:59:03.751Z,0.00
2019-01-04T02:00:03.747Z,0.00
2019-01-04T02:01:03.727Z,0.00
2019-01-04T02:02:03.719Z,0.00
2019-01-04T02:03:03.706Z,0.00
2019-01-04T02:04:03.685Z,0.00
2019-01-04T02:05:03.677Z,0.00
2019-01-04T02:06:03.697Z,0.00
2019-01-04T02:07:03.660Z,0.00
2019-01-04T02:08:03.687Z,0.00
2019-01-04T02:09:07.238Z,0.00
2019-01-04T02:10:03.606Z,0.00
2019-01-04T02:11:03.593Z,0.00
2019-01-04T02:12:03.591Z,0.00
2019-01-04T02:13:03.583Z,0.00
2019-01-04T02:14:03.570Z,0.00
2019-01-04T02:15:03.551Z,0.00
2019-01-04T02:16:03.532Z,0.00
2019-01-04T02:17:03.526Z,0.00
2019-01-04T02:18:03.540Z,0.00
2019-01-04T02:19:03.523Z,0.00
2019-01-04T02:20:03.504Z,0.00
2019-01-04T02:21:03.489Z,0.00
2019-01-04T02:22:03.459Z,0.00
2019-01-04T02:23:03.465Z,0.00
2019-01-04T02:24:03.437Z,0.00
2019-01-04T02:25:03.433Z,0.00
2019-01-04T02:26:03.412Z,0.00
2019-01-04T02:27:03.393Z,0.00
2019-01-04T02:28:03.386Z,0.00
2019-01-04T02:29:03.371Z,0.00
2019-01-04T02:30:03.361Z,0.00
2019-01-04T02:31:03.366Z,0.00
2019-01-04T02:32:03.333Z,0.00
2019-01-04T02:33:11.978Z,0.00
2019-01-04T02:35:07.804Z,0.00
2019-01-04T02:36:07.766Z,0.00
2019-01-04T02:37:07.755Z,0.00
2019-01-04T02:38:07.742Z,0.00
2019-01-04T02:39:07.760Z,0.00
2019-01-04T02:40:07.720Z,0.00
2019-01-04T02:41:07.702Z,0.00
2019-01-04T02:42:07.687Z,0.00
2019-01-04T02:43:07.674Z,0.00
2019-01-04T02:44:07.676Z,0.00
2019-01-04T02:45:07.659Z,0.00
2019-01-04T02:46:07.638Z,0.00
2019-01-04T02:47:07.645Z,0.00
2019-01-04T02:48:07.615Z,0.00
2019-01-04T02:49:07.618Z,0.00
2019-01-04T02:50:07.596Z,0.00
2019-01-04T02:51:07.582Z,0.00
2019-01-04T02:52:07.576Z,0.00
2019-01-04T02:53:07.556Z,0.00
2019-01-04T02:54:07.539Z,0.00
2019-01-04T02:55:07.530Z,0.00
2019-01-04T02:56:07.526Z,0.00
2019-01-04T02:57:07.500Z,0.00
2019-01-04T02:58:07.491Z,0.00
2019-01-04T03:14:04.541Z,0.00
2019-01-04T03:15:04.512Z,0.00
2019-01-04T03:16:04.485Z,0.00
2019-01-04T03:17:04.465Z,0.00
2019-01-04T03:18:04.457Z,0.00
2019-01-04T03:19:04.439Z,0.00
2019-01-04T03:20:04.443Z,0.00
2019-01-04T03:21:04.412Z,0.00
2019-01-04T03:22:04.397Z,0.00
2019-01-04T03:23:04.382Z,0.00
2019-01-04T03:24:04.378Z,0.00
2019-01-04T03:25:04.372Z,0.00
2019-01-04T03:26:14.014Z,0.00
2019-01-04T03:28:08.826Z,0.00
2019-01-04T03:29:08.781Z,0.00
2019-01-04T03:30:08.769Z,0.00
2019-01-04T03:31:08.761Z,0.00
2019-01-04T03:32:08.754Z,0.00
2019-01-04T03:33:08.755Z,0.00
2019-01-04T03:34:08.753Z,0.00
2019-01-04T03:35:08.699Z,0.00
2019-01-04T03:36:08.688Z,0.00
2019-01-04T03:37:08.689Z,0.00
2019-01-04T03:38:08.657Z,0.00
2019-01-04T03:39:08.653Z,0.00
2019-01-04T03:40:08.635Z,0.00
2019-01-04T03:41:08.622Z,0.00
2019-01-04T03:42:08.614Z,0.00
2019-01-04T03:43:08.608Z,0.00
2019-01-04T03:44:08.589Z,0.00
2019-01-04T03:45:08.576Z,0.00
2019-01-04T03:46:08.559Z,0.00
2019-01-04T03:47:08.546Z,0.00
2019-01-04T03:48:08.556Z,0.00
2019-01-04T03:49:08.541Z,0.00
2019-01-04T03:50:08.509Z,0.00
2019-01-04T03:51:08.503Z,0.00
2019-01-04T03:52:08.489Z,0.00
2019-01-04T03:53:08.473Z,0.00
2019-01-04T03:54:08.472Z,0.00
2019-01-04T03:55:08.463Z,0.00
2019-01-04T03:56:08.439Z,0.00
2019-01-04T03:57:17.069Z,0.00
2019-01-04T03:59:12.904Z,0.00
2019-01-04T04:00:12.872Z,0.00
2019-01-04T04:01:12.862Z,0.00
2019-01-04T04:02:12.839Z,0.00
2019-01-04T04:03:12.827Z,0.00
2019-01-04T04:04:12.845Z,0.00
2019-01-04T04:05:12.838Z,0.00
2019-01-04T04:06:12.820Z,0.00
2019-01-04T04:07:12.836Z,0.00
2019-01-04T04:08:12.808Z,0.00
2019-01-04T04:09:12.807Z,0.00
2019-01-04T04:10:12.737Z,0.00
2019-01-04T04:11:12.733Z,0.00
2019-01-04T04:12:12.729Z,0.00
2019-01-04T04:13:12.721Z,0.00
2019-01-04T04:14:12.860Z,0.00
2019-01-04T04:15:12.706Z,0.00
2019-01-04T04:16:12.697Z,0.00
2019-01-04T04:17:12.659Z,0.00
2019-01-04T04:18:12.653Z,0.00
2019-01-04T04:19:12.644Z,0.00
2019-01-04T04:20:12.623Z,0.00
2019-01-04T04:21:12.608Z,0.00
2019-01-04T04:22:12.597Z,0.00
2019-01-04T04:23:12.601Z,0.00
2019-01-04T04:24:12.563Z,0.00
2019-01-04T04:25:12.568Z,0.00
2019-01-04T04:26:12.539Z,0.00
2019-01-04T04:27:12.526Z,0.00
2019-01-04T04:28:12.517Z,0.00
2019-01-04T04:29:12.508Z,0.00
2019-01-04T04:30:12.494Z,0.00
2019-01-04T04:31:12.479Z,0.00
2019-01-04T04:32:12.462Z,0.00
2019-01-04T04:33:12.453Z,0.00
2019-01-04T04:34:12.459Z,0.00
2019-01-04T04:35:12.431Z,0.00
2019-01-04T04:36:12.447Z,0.00
2019-01-04T04:37:12.413Z,0.00
2019-01-04T04:38:12.394Z,0.00
2019-01-04T04:39:12.395Z,0.00
2019-01-04T04:40:12.366Z,0.00
2019-01-04T04:41:12.351Z,0.00
2019-01-04T04:42:12.354Z,0.00
2019-01-04T04:43:12.331Z,0.00
2019-01-04T04:44:12.329Z,0.00
2019-01-04T04:45:12.298Z,0.00
2019-01-04T04:46:12.323Z,0.00
2019-01-04T04:47:12.281Z,0.00
2019-01-04T04:48:12.270Z,0.00
2019-01-04T04:49:12.261Z,0.00
2019-01-04T04:50:12.243Z,0.00
2019-01-04T04:51:12.242Z,0.00
2019-01-04T04:52:12.232Z,0.00
2019-01-04T04:53:12.223Z,0.00
2019-01-04T04:54:12.190Z,0.00
2019-01-04T04:55:12.201Z,0.00
2019-01-04T04:56:12.167Z,0.00
2019-01-04T04:57:12.160Z,0.00
2019-01-04T04:58:12.165Z,0.00
2019-01-04T04:59:12.133Z,0.00
2019-01-04T05:00:12.127Z,0.00
2019-01-04T05:01:12.107Z,0.00
2019-01-04T05:02:12.100Z,0.00
2019-01-04T05:03:12.106Z,0.00
2019-01-04T05:04:12.071Z,0.00
2019-01-04T05:05:12.061Z,0.00
2019-01-04T05:06:12.047Z,0.00
2019-01-04T05:07:12.037Z,0.00
2019-01-04T05:08:12.017Z,0.00
2019-01-04T05:09:12.014Z,0.00
2019-01-04T05:10:11.994Z,0.00
2019-01-04T05:11:11.991Z,0.00
2019-01-04T05:12:11.965Z,0.00
2019-01-04T05:13:11.966Z,0.00
2019-01-04T05:14:11.944Z,0.00
2019-01-04T05:15:11.938Z,0.00
2019-01-04T05:16:11.919Z,0.00
2019-01-04T05:17:11.905Z,0.00
2019-01-04T05:18:11.892Z,0.00
2019-01-04T05:19:11.879Z,0.00
2019-01-04T05:20:11.900Z,0.00
2019-01-04T05:21:11.858Z,0.00
2019-01-04T05:22:11.844Z,0.00
2019-01-04T05:23:11.832Z,0.00
2019-01-04T05:24:11.831Z,0.00
2019-01-04T05:25:11.806Z,0.00
2019-01-04T05:26:11.786Z,0.00
2019-01-04T05:27:11.803Z,0.00
2019-01-04T05:28:11.766Z,0.00
2019-01-04T05:29:11.777Z,0.00
2019-01-04T05:30:11.753Z,0.00
2019-01-04T05:31:11.724Z,0.00
2019-01-04T05:32:11.726Z,0.00
2019-01-04T05:33:11.740Z,0.00
2019-01-04T05:34:11.707Z,0.00
2019-01-04T05:35:11.675Z,0.00
2019-01-04T05:36:11.659Z,0.00
2019-01-04T05:37:11.660Z,0.00
2019-01-04T05:38:11.641Z,0.00
2019-01-04T05:39:11.635Z,0.00
2019-01-04T05:40:11.614Z,0.00
2019-01-04T05:41:11.603Z,0.00
2019-01-04T05:42:11.622Z,0.00
2019-01-04T05:43:11.577Z,0.00
2019-01-04T05:44:11.575Z,0.00
2019-01-04T05:45:11.552Z,0.00
2019-01-04T05:46:11.535Z,0.00
2019-01-04T05:47:11.533Z,0.00
2019-01-04T05:48:11.514Z,0.00
2019-01-04T05:49:11.503Z,0.00
2019-01-04T05:50:11.521Z,0.00
2019-01-04T05:51:11.475Z,0.00
2019-01-04T05:52:11.491Z,0.00
2019-01-04T05:53:11.466Z,0.00
2019-01-04T05:54:11.433Z,0.00
2019-01-04T05:55:11.431Z,0.00
2019-01-04T05:56:11.429Z,0.00
2019-01-04T05:57:11.401Z,0.00
2019-01-04T05:58:20.050Z,0.00
2019-01-04T06:00:16.879Z,0.00
2019-01-04T06:01:16.837Z,0.00
2019-01-04T06:02:16.850Z,0.00
2019-01-04T06:03:16.830Z,0.00
2019-01-04T06:04:16.811Z,0.00
2019-01-04T06:05:16.805Z,0.00
2019-01-04T06:06:16.790Z,0.00
2019-01-04T06:07:16.776Z,0.00
2019-01-04T06:08:16.781Z,0.00
2019-01-04T06:09:16.903Z,0.00
2019-01-04T06:10:16.739Z,0.00
2019-01-04T06:11:16.722Z,0.00
2019-01-04T06:12:16.696Z,0.00
2019-01-04T06:13:16.689Z,0.00
2019-01-04T06:14:16.694Z,0.00
2019-01-04T06:15:16.683Z,0.00
2019-01-04T06:16:16.675Z,0.00
2019-01-04T06:17:16.662Z,0.00
2019-01-04T06:18:16.646Z,0.00
2019-01-04T06:19:16.616Z,0.00
2019-01-04T06:20:16.604Z,0.00
2019-01-04T06:21:16.604Z,0.00
2019-01-04T06:22:16.598Z,0.00
2019-01-04T06:23:16.561Z,0.00
2019-01-04T06:24:16.545Z,0.00
2019-01-04T06:25:16.547Z,0.00
2019-01-04T06:26:25.190Z,0.00
2019-01-04T06:28:28.659Z,0.00
2019-01-04T06:29:21.010Z,0.00
2019-01-04T06:30:20.963Z,0.00
2019-01-04T06:31:20.953Z,0.00
2019-01-04T06:32:20.935Z,0.00
2019-01-04T06:33:20.927Z,0.00
2019-01-04T06:34:20.928Z,0.00
2019-01-04T06:35:20.925Z,0.00
2019-01-04T06:36:20.891Z,0.00
2019-01-04T06:37:20.874Z,0.00
2019-01-04T06:38:20.865Z,0.00
2019-01-04T06:39:20.845Z,0.00
2019-01-04T06:40:20.861Z,0.00
2019-01-04T06:41:20.831Z,0.00
2019-01-04T06:42:20.843Z,0.00
2019-01-04T06:43:20.804Z,0.00
2019-01-04T06:44:20.791Z,0.00
2019-01-04T06:45:20.794Z,0.00
2019-01-04T06:46:20.757Z,0.00
2019-01-04T06:47:20.776Z,0.00
2019-01-04T06:48:20.737Z,0.00
2019-01-04T06:49:20.717Z,0.00
2019-01-04T06:50:20.732Z,0.00
2019-01-04T06:51:20.719Z,0.00
2019-01-04T06:52:20.703Z,0.00
2019-01-04T06:53:20.714Z,0.00
2019-01-04T06:54:20.706Z,0.00
2019-01-04T06:55:20.650Z,0.00
2019-01-04T06:56:20.692Z,0.00
2019-01-04T06:57:20.658Z,4.00
2019-01-04T06:58:20.635Z,4.00
2019-01-04T06:59:20.634Z,4.00
2019-01-04T07:00:20.625Z,0.00
2019-01-04T07:01:20.593Z,4.00
2019-01-04T07:02:20.568Z,4.00
2019-01-04T07:03:20.565Z,4.00
2019-01-04T07:04:20.581Z,4.00
2019-01-04T07:05:20.525Z,4.00
2019-01-04T07:06:20.533Z,4.00
2019-01-04T07:07:20.502Z,8.00
2019-01-04T07:08:20.499Z,4.00
2019-01-04T07:09:20.482Z,8.00
2019-01-04T07:10:20.467Z,8.00
2019-01-04T07:11:20.476Z,12.00
2019-01-04T07:12:20.436Z,12.00
2019-01-04T07:13:20.470Z,12.00
2019-01-04T07:14:20.460Z,16.00
2019-01-04T07:15:20.404Z,12.00
2019-01-04T07:16:20.424Z,16.00
2019-01-04T07:17:20.403Z,20.00
2019-01-04T07:18:20.384Z,20.00
2019-01-04T07:19:20.372Z,20.00
2019-01-04T07:20:20.345Z,20.00
2019-01-04T07:21:20.376Z,24.00
2019-01-04T07:22:20.339Z,28.00
2019-01-04T07:23:20.320Z,28.00
2019-01-04T07:24:20.291Z,32.00
2019-01-04T07:25:20.296Z,36.00
2019-01-04T07:26:20.267Z,40.00
2019-01-04T07:27:20.257Z,40.00
2019-01-04T07:28:20.248Z,48.00
2019-01-04T07:29:20.232Z,48.00
2019-01-04T07:30:20.224Z,52.00
2019-01-04T07:31:20.212Z,60.00
2019-01-04T07:32:20.197Z,64.00
2019-01-04T07:33:20.216Z,68.00
2019-01-04T07:34:20.174Z,72.00
2019-01-04T07:35:20.160Z,76.00
2019-01-04T07:36:20.151Z,80.00
2019-01-04T07:37:20.138Z,84.00
2019-01-04T07:38:20.135Z,88.00
2019-01-04T07:39:20.147Z,96.00
2019-01-04T07:40:20.109Z,96.00
2019-01-04T07:41:20.082Z,104.00
2019-01-04T07:42:20.115Z,108.00
2019-01-04T07:43:20.064Z,112.00
2019-01-04T07:44:20.049Z,116.00
2019-01-04T07:45:20.035Z,124.00
2019-01-04T07:54:51.019Z,192.00
2019-01-04T07:55:50.900Z,200.00
2019-01-04T07:56:50.873Z,212.00
2019-01-04T07:57:50.911Z,220.00
2019-01-04T07:58:50.876Z,232.00
2019-01-04T07:59:50.857Z,244.00
2019-01-04T08:00:50.825Z,252.00
2019-01-04T08:01:50.815Z,256.00
2019-01-04T08:02:50.818Z,260.00
2019-01-04T08:03:50.825Z,264.00
2019-01-04T08:04:50.773Z,264.00
2019-01-04T08:05:50.808Z,260.00
2019-01-04T08:06:50.745Z,252.00
2019-01-04T08:07:50.779Z,264.00
2019-01-04T08:08:50.725Z,272.00
2019-01-04T08:09:50.723Z,288.00
2019-01-04T08:10:50.698Z,308.00
2019-01-04T08:11:50.714Z,324.00
2019-01-04T08:12:50.724Z,344.00
2019-01-04T08:13:50.666Z,368.00
2019-01-04T08:14:50.660Z,392.00
2019-01-04T08:15:50.633Z,404.00
2019-01-04T08:16:50.660Z,420.00
2019-01-04T08:17:50.624Z,436.00
2019-01-04T08:18:50.605Z,448.00
2019-01-04T08:19:50.586Z,464.00
2019-01-04T08:20:50.658Z,476.00
2019-01-04T08:21:50.565Z,480.00
2019-01-04T08:22:50.556Z,472.00
2019-01-04T08:23:59.188Z,480.00
2019-01-04T08:25:43.940Z,504.00
2019-01-04T08:26:43.918Z,516.00
2019-01-04T08:27:43.900Z,528.00
2019-01-04T08:28:43.890Z,540.00
2019-01-04T08:29:43.881Z,544.00
2019-01-04T08:30:43.871Z,540.00
2019-01-04T08:31:43.859Z,552.00
2019-01-04T08:32:43.843Z,568.00
2019-01-04T08:33:43.831Z,592.00
2019-01-04T08:34:43.810Z,616.00
2019-01-04T08:35:43.807Z,648.00
2019-01-04T08:36:44.253Z,504.00
2019-01-04T08:37:43.775Z,532.00
2019-01-04T08:38:43.773Z,552.00
2019-01-04T08:39:43.768Z,580.00
2019-01-04T08:40:43.743Z,592.00
2019-01-04T08:41:43.738Z,596.00
2019-01-04T08:42:43.725Z,620.00
2019-01-04T08:43:43.706Z,640.00
2019-01-04T08:44:43.709Z,668.00
2019-01-04T08:45:43.682Z,688.00
2019-01-04T08:46:43.675Z,716.00
2019-01-04T08:47:43.664Z,724.00
2019-01-04T08:48:43.656Z,748.00
2019-01-04T08:49:43.646Z,748.00
2019-01-04T08:50:43.630Z,748.00
2019-01-04T08:51:43.612Z,760.00
2019-01-04T08:52:43.604Z,756.00
2019-01-04T08:53:43.617Z,744.00
2019-01-04T08:54:43.581Z,756.00
2019-01-04T08:55:43.581Z,744.00
2019-01-04T08:56:43.553Z,756.00
2019-01-04T08:57:43.553Z,748.00
2019-01-04T08:58:52.204Z,764.00
2019-01-04T09:00:48.019Z,784.00
2019-01-04T09:01:47.992Z,784.00
2019-01-04T09:02:47.976Z,780.00
2019-01-04T09:03:47.971Z,788.00
2019-01-04T09:04:47.952Z,816.00
2019-01-04T09:05:47.951Z,812.00
2019-01-04T09:06:47.928Z,824.00
2019-01-04T09:07:47.920Z,812.00
2019-01-04T09:08:47.909Z,808.00
2019-01-04T09:09:47.899Z,776.00
2019-01-04T09:10:47.880Z,764.00
2019-01-04T09:11:47.891Z,744.00
2019-01-04T09:12:47.868Z,696.00
2019-01-04T09:13:47.850Z,708.00
2019-01-04T09:14:47.851Z,696.00
2019-01-04T09:15:47.830Z,656.00
2019-01-04T09:16:47.814Z,664.00
2019-01-04T09:17:47.803Z,632.00
2019-01-04T09:18:47.789Z,632.00
2019-01-04T09:19:47.790Z,616.00
2019-01-04T09:20:47.770Z,628.00
2019-01-04T09:21:47.767Z,644.00
2019-01-04T09:22:47.842Z,648.00
2019-01-04T09:23:47.842Z,660.00
2019-01-04T09:24:47.913Z,664.00
2019-01-04T09:25:47.780Z,676.00
2019-01-04T09:26:47.844Z,676.00
2019-01-04T09:27:47.692Z,700.00
2019-01-04T09:28:47.795Z,716.00
2019-01-04T09:29:47.869Z,724.00
2019-01-04T09:30:47.810Z,700.00
2019-01-04T09:31:47.745Z,712.00
2019-01-04T09:32:47.862Z,692.00
2019-01-04T09:33:47.693Z,680.00
2019-01-04T09:34:47.792Z,664.00
2019-01-04T09:35:47.623Z,652.00
2019-01-04T09:36:47.612Z,640.00
2019-01-04T09:37:47.573Z,628.00
2019-01-04T09:38:47.586Z,600.00
2019-01-04T09:39:47.593Z,604.00
2019-01-04T09:40:47.540Z,616.00
2019-01-04T09:41:47.544Z,616.00
2019-01-04T09:42:47.550Z,616.00
2019-01-04T09:43:47.558Z,616.00
2019-01-04T09:44:47.522Z,624.00
2019-01-04T09:45:47.527Z,608.00
2019-01-04T09:46:47.472Z,612.00
2019-01-04T09:47:47.489Z,604.00
2019-01-04T09:48:47.442Z,608.00
2019-01-04T09:49:47.477Z,612.00
2019-01-04T09:50:47.489Z,624.00
2019-01-04T09:51:47.417Z,612.00
2019-01-04T09:52:47.425Z,644.00
2019-01-04T09:53:47.408Z,652.00
2019-01-04T09:54:47.424Z,664.00
2019-01-04T09:55:47.395Z,664.00
2019-01-04T09:56:47.389Z,664.00
2019-01-04T09:57:47.346Z,672.00
2019-01-04T09:58:47.351Z,656.00
2019-01-04T09:59:47.357Z,652.00
2019-01-04T10:00:47.337Z,632.00
2019-01-04T10:01:47.303Z,616.00
2019-01-04T10:02:47.287Z,592.00
2019-01-04T10:03:47.282Z,576.00
2019-01-04T10:04:47.294Z,560.00
2019-01-04T10:05:47.287Z,540.00
2019-01-04T10:06:47.263Z,536.00
2019-01-04T10:07:47.269Z,528.00
2019-01-04T10:08:47.255Z,516.00
2019-01-04T10:09:47.217Z,508.00
2019-01-04T10:10:47.202Z,496.00
2019-01-04T10:11:47.183Z,484.00
2019-01-04T10:12:47.222Z,464.00
2019-01-04T10:13:47.191Z,460.00
2019-01-04T10:14:47.165Z,476.00
2019-01-04T10:15:47.165Z,468.00
2019-01-04T10:16:47.156Z,464.00
2019-01-04T10:17:47.128Z,468.00
2019-01-04T10:18:47.134Z,464.00
2019-01-04T10:19:47.136Z,444.00
2019-01-04T10:20:47.154Z,436.00
2019-01-04T10:21:55.748Z,440.00
2019-01-04T10:24:02.878Z,416.00
2019-01-04T10:25:02.961Z,428.00
2019-01-04T10:26:02.811Z,452.00
2019-01-04T10:27:02.789Z,464.00
2019-01-04T10:28:02.771Z,484.00
2019-01-04T10:29:02.764Z,508.00
2019-01-04T10:30:02.725Z,520.00
2019-01-04T10:31:02.724Z,520.00
2019-01-04T10:32:02.738Z,520.00
2019-01-04T10:33:02.725Z,496.00
2019-01-04T10:34:02.683Z,492.00
2019-01-04T10:35:02.667Z,496.00
2019-01-04T10:36:02.659Z,508.00
2019-01-04T10:37:02.659Z,516.00
2019-01-04T10:38:02.674Z,524.00
2019-01-04T10:39:02.679Z,536.00
2019-01-04T10:40:02.643Z,556.00
2019-01-04T10:41:02.608Z,584.00
2019-01-04T10:42:02.590Z,568.00
2019-01-04T10:43:02.589Z,572.00
2019-01-04T10:44:02.584Z,588.00
2019-01-04T10:45:02.592Z,584.00
2019-01-04T10:46:02.605Z,660.00
2019-01-04T10:47:02.540Z,664.00
2019-01-04T10:48:02.537Z,688.00
2019-01-04T10:49:02.533Z,684.00
2019-01-04T10:50:02.502Z,676.00
2019-01-04T10:51:02.507Z,684.00
2019-01-04T10:52:02.468Z,680.00
2019-01-04T10:53:02.512Z,668.00
2019-01-04T10:54:02.480Z,720.00
2019-01-04T10:55:02.475Z,748.00
2019-01-04T10:56:02.486Z,780.00
2019-01-04T10:57:02.448Z,800.00
2019-01-04T10:58:02.410Z,808.00
2019-01-04T10:59:02.414Z,824.00
2019-01-04T11:00:02.419Z,832.00
2019-01-04T11:01:02.405Z,856.00
2019-01-04T11:02:02.425Z,880.00
2019-01-04T11:03:02.358Z,864.00
2019-01-04T11:04:02.347Z,876.00
2019-01-04T11:05:11.031Z,880.00
2019-01-04T11:07:06.995Z,844.00
2019-01-04T11:08:06.774Z,856.00
2019-01-04T11:09:06.808Z,860.00
2019-01-04T11:10:06.782Z,784.00
2019-01-04T11:11:06.761Z,796.00
2019-01-04T11:12:06.743Z,756.00
2019-01-04T11:13:06.742Z,720.00
2019-01-04T11:14:06.716Z,672.00
2019-01-04T11:15:06.711Z,612.00
2019-01-04T11:16:06.695Z,584.00
2019-01-04T11:17:06.703Z,556.00
2019-01-04T11:18:09.929Z,576.00
2019-01-04T11:19:06.676Z,568.00
2019-01-04T11:20:06.650Z,552.00
2019-01-04T11:21:06.648Z,544.00
2019-01-04T11:22:06.647Z,576.00
2019-01-04T11:23:06.607Z,576.00
2019-01-04T11:24:06.629Z,592.00
2019-01-04T11:25:06.629Z,608.00
2019-01-04T11:26:06.576Z,640.00
2019-01-04T11:27:06.588Z,712.00
2019-01-04T11:28:06.635Z,784.00
2019-01-04T11:29:06.604Z,860.00
2019-01-04T11:30:06.706Z,884.00
2019-01-04T11:31:15.529Z,924.00
2019-01-04T11:33:00.175Z,924.00
2019-01-04T11:34:00.319Z,948.00
2019-01-04T11:35:00.151Z,956.00
2019-01-04T11:36:00.132Z,876.00
2019-01-04T11:37:00.151Z,980.00
2019-01-04T11:38:00.123Z,992.00
2019-01-04T11:39:00.112Z,1044.00
2019-01-04T11:40:00.237Z,1076.00
2019-01-04T11:41:00.133Z,1116.00
2019-01-04T11:42:00.088Z,1132.00
2019-01-04T11:43:00.145Z,1184.00
2019-01-04T11:44:00.080Z,1116.00
2019-01-04T11:45:00.163Z,1260.00
2019-01-04T11:46:00.018Z,1184.00
2019-01-04T11:47:00.104Z,1280.00
2019-01-04T11:48:00.003Z,1284.00
2019-01-04T11:49:00.010Z,1280.00
2019-01-04T11:49:59.980Z,1268.00
2019-01-04T11:50:59.973Z,1120.00
2019-01-04T11:51:59.973Z,1248.00
2019-01-04T11:52:59.969Z,1120.00
2019-01-04T11:53:59.933Z,1132.00
2019-01-04T11:54:59.935Z,1108.00
2019-01-04T11:55:59.973Z,1096.00
2019-01-04T11:56:59.973Z,1072.00
2019-01-04T11:57:59.926Z,1064.00
2019-01-04T11:58:59.921Z,1036.00
2019-01-04T11:59:59.851Z,1016.00
2019-01-04T12:00:59.869Z,1004.00
2019-01-04T12:01:59.856Z,992.00
2019-01-04T12:02:59.815Z,968.00
2019-01-04T12:03:59.827Z,936.00
2019-01-04T12:04:59.837Z,920.00
2019-01-04T12:05:59.848Z,900.00
2019-01-04T12:06:59.805Z,840.00
2019-01-04T12:07:59.753Z,852.00
2019-01-04T12:08:59.793Z,772.00
2019-01-04T12:09:59.759Z,812.00
2019-01-04T12:10:59.761Z,764.00
2019-01-04T12:11:59.743Z,732.00
2019-01-04T12:12:59.767Z,748.00
2019-01-04T12:14:00.389Z,744.00
2019-01-04T12:14:59.730Z,736.00
2019-01-04T12:15:59.740Z,664.00
2019-01-04T12:16:59.699Z,700.00
2019-01-04T12:17:59.756Z,684.00
2019-01-04T12:18:59.687Z,656.00
2019-01-04T12:19:59.665Z,668.00
2019-01-04T12:20:59.615Z,632.00
2019-01-04T12:21:59.702Z,648.00
2019-01-04T12:22:59.678Z,620.00
2019-01-04T12:23:59.694Z,632.00
2019-01-04T12:24:59.590Z,636.00
2019-01-04T12:25:59.562Z,640.00
2019-01-04T12:26:59.553Z,628.00
2019-01-04T12:27:59.546Z,644.00
2019-01-04T12:28:59.531Z,656.00
2019-01-04T12:29:59.535Z,656.00
2019-01-04T12:30:59.532Z,648.00
2019-01-04T12:31:59.505Z,656.00
2019-01-04T12:32:59.492Z,656.00
2019-01-04T12:33:59.484Z,640.00
2019-01-04T12:34:59.464Z,604.00
2019-01-04T12:35:59.464Z,612.00
2019-01-04T12:36:59.467Z,620.00
2019-01-04T12:37:59.475Z,596.00
2019-01-04T12:38:59.442Z,584.00
2019-01-04T12:39:59.423Z,612.00
2019-01-04T12:40:59.404Z,624.00
2019-01-04T12:41:59.421Z,640.00
2019-01-04T12:42:59.386Z,652.00
2019-01-04T12:43:59.409Z,668.00
2019-01-04T12:44:59.365Z,680.00
2019-01-04T12:45:59.354Z,696.00
2019-01-04T12:46:59.404Z,704.00
2019-01-04T12:47:59.332Z,712.00
2019-01-04T12:48:59.361Z,716.00
2019-01-04T12:49:59.322Z,704.00
2019-01-04T12:50:59.313Z,716.00
2019-01-04T12:51:59.293Z,700.00
2019-01-04T12:52:59.271Z,704.00
2019-01-04T12:53:59.269Z,704.00
2019-01-04T12:54:59.250Z,688.00
2019-01-04T12:55:59.244Z,688.00
2019-01-04T12:56:59.257Z,684.00
2019-01-04T12:57:59.224Z,684.00
2019-01-04T12:58:59.219Z,684.00
2019-01-04T12:59:59.209Z,692.00
2019-01-04T13:00:59.200Z,688.00
2019-01-04T13:01:59.179Z,688.00
2019-01-04T13:02:59.167Z,656.00
2019-01-04T13:03:59.165Z,628.00
2019-01-04T13:04:59.146Z,648.00
2019-01-04T13:05:59.134Z,636.00
2019-01-04T13:06:59.137Z,612.00
2019-01-04T13:07:59.128Z,600.00
2019-01-04T13:08:59.103Z,572.00
2019-01-04T13:09:59.103Z,576.00
2019-01-04T13:10:59.094Z,560.00
2019-01-04T13:11:59.087Z,556.00
2019-01-04T13:12:59.072Z,560.00
2019-01-04T13:13:59.062Z,560.00
2019-01-04T13:14:59.133Z,552.00
2019-01-04T13:15:59.027Z,544.00
2019-01-04T13:16:59.034Z,528.00
2019-01-04T13:17:59.013Z,536.00
2019-01-04T13:18:59.016Z,528.00
2019-01-04T13:19:58.988Z,516.00
2019-01-04T13:20:58.981Z,504.00
2019-01-04T13:21:58.981Z,500.00
2019-01-04T13:22:58.959Z,500.00
2019-01-04T13:23:58.945Z,500.00
2019-01-04T13:24:58.930Z,488.00
2019-01-04T13:25:58.921Z,484.00
2019-01-04T13:26:58.910Z,488.00
2019-01-04T13:27:58.901Z,476.00